createdAt,value
2023-02-15T00:00:09.018Z,3.10
2023-02-15T00:00:19.043Z,3.23
2023-02-15T00:00:29.089Z,3.31
2023-02-15T00:00:39.016Z,3.25
2023-02-15T00:00:49.046Z,3.23
2023-02-15T00:00:59.017Z,3.36
2023-02-15T00:01:09.673Z,3.31
2023-02-15T00:01:19.007Z,3.18
2023-02-15T00:01:29.005Z,3.39
2023-02-15T00:01:39.061Z,3.18
2023-02-15T00:01:49.034Z,3.21
2023-02-15T00:01:59.092Z,3.31
2023-02-15T00:02:09.066Z,3.18
2023-02-15T00:02:19.086Z,3.21
2023-02-15T00:02:29.655Z,3.40
2023-02-15T00:02:39.005Z,3.34
2023-02-15T00:02:49.038Z,3.20
2023-02-15T00:02:59.032Z,3.36
2023-02-15T00:03:09.059Z,3.40
2023-02-15T00:03:19.106Z,3.34
2023-02-15T00:03:29.006Z,3.21
2023-02-15T00:03:39.009Z,3.16
2023-02-15T00:03:48.997Z,3.39
2023-02-15T00:03:59.096Z,3.31
2023-02-15T00:04:09.012Z,3.30
2023-02-15T00:04:18.989Z,3.30
2023-02-15T00:04:29.020Z,3.09
2023-02-15T00:04:38.991Z,3.16
2023-02-15T00:04:48.992Z,3.28
2023-02-15T00:04:59.010Z,3.24
2023-02-15T00:05:08.995Z,3.34
2023-02-15T00:05:19.700Z,3.07
2023-02-15T00:05:29.005Z,3.24
2023-02-15T00:05:39.015Z,3.18
2023-02-15T00:05:48.998Z,3.20
2023-02-15T00:05:59.341Z,3.18
2023-02-15T00:06:09.019Z,3.23
2023-02-15T00:06:18.987Z,3.30
2023-02-15T00:06:28.996Z,3.28
2023-02-15T00:06:39.664Z,3.40
2023-02-15T00:06:49.003Z,3.18
2023-02-15T00:06:58.995Z,3.07
2023-02-15T00:07:08.984Z,3.24
2023-02-15T00:07:19.098Z,3.13
2023-02-15T00:07:29.078Z,3.21
2023-02-15T00:07:38.979Z,3.39
2023-02-15T00:07:49.001Z,3.28
2023-02-15T00:07:58.979Z,3.24
2023-02-15T00:08:09.655Z,3.24
2023-02-15T00:08:19.000Z,3.27
2023-02-15T00:08:29.153Z,3.24
2023-02-15T00:08:39.032Z,3.39
2023-02-15T00:08:48.974Z,3.27
2023-02-15T00:08:58.984Z,3.15
2023-02-15T00:09:08.969Z,3.36
2023-02-15T00:09:19.671Z,3.30
2023-02-15T00:09:29.036Z,3.03
2023-02-15T00:09:38.977Z,3.27
2023-02-15T00:09:48.977Z,3.23
2023-02-15T00:09:58.974Z,3.00
2023-02-15T00:10:08.983Z,3.42
2023-02-15T00:10:18.979Z,3.24
2023-02-15T00:10:28.981Z,3.06
2023-02-15T00:10:38.984Z,3.27
2023-02-15T00:10:48.971Z,3.10
2023-02-15T00:10:59.159Z,3.28
2023-02-15T00:11:08.986Z,3.24
2023-02-15T00:11:18.972Z,3.25
2023-02-15T00:11:28.975Z,3.25
2023-02-15T00:11:38.962Z,3.31
2023-02-15T00:11:48.989Z,3.28
2023-02-15T00:11:58.961Z,3.16
2023-02-15T00:12:09.696Z,3.44
2023-02-15T00:12:19.028Z,3.25
2023-02-15T00:12:28.963Z,3.10
2023-02-15T00:12:38.985Z,3.12
2023-02-15T00:12:48.980Z,3.20
2023-02-15T00:12:58.962Z,3.34
2023-02-15T00:13:08.958Z,3.27
2023-02-15T00:13:19.757Z,3.15
2023-02-15T00:13:28.960Z,3.12
2023-02-15T00:13:39.785Z,3.23
2023-02-15T00:13:48.967Z,3.07
2023-02-15T00:13:58.968Z,3.13
2023-02-15T00:14:08.954Z,3.25
2023-02-15T00:14:18.959Z,3.15
2023-02-15T00:14:28.946Z,3.28
2023-02-15T00:14:38.948Z,3.25
2023-02-15T00:14:48.954Z,3.24
2023-02-15T00:14:58.984Z,3.24
2023-02-15T00:15:09.015Z,3.27
2023-02-15T00:15:18.955Z,3.20
2023-02-15T00:15:28.948Z,3.20
2023-02-15T00:15:38.955Z,3.33
2023-02-15T00:15:48.951Z,3.34
2023-02-15T00:15:59.158Z,3.24
2023-02-15T00:16:08.976Z,3.18
2023-02-15T00:16:18.961Z,3.15
2023-02-15T00:16:29.761Z,3.23
2023-02-15T00:16:39.131Z,3.02
2023-02-15T00:16:49.014Z,3.20
2023-02-15T00:16:58.956Z,3.40
2023-02-15T00:17:08.990Z,3.09
2023-02-15T00:17:18.941Z,3.12
2023-02-15T00:17:29.659Z,3.16
2023-02-15T00:17:38.933Z,3.02
2023-02-15T00:17:48.939Z,3.16
2023-02-15T00:17:59.056Z,3.30
2023-02-15T00:18:08.939Z,3.10
2023-02-15T00:18:18.938Z,3.23
2023-02-15T00:18:28.952Z,3.13
2023-02-15T00:18:39.667Z,3.12
2023-02-15T00:18:48.992Z,3.23
2023-02-15T00:18:58.937Z,3.16
2023-02-15T00:19:08.950Z,3.25
2023-02-15T00:19:19.660Z,3.18
2023-02-15T00:19:29.228Z,3.10
2023-02-15T00:19:38.948Z,3.39
2023-02-15T00:19:48.942Z,3.16
2023-02-15T00:19:58.970Z,3.21
2023-02-15T00:20:08.943Z,3.18
2023-02-15T00:20:18.929Z,3.06
2023-02-15T00:20:28.920Z,3.21
2023-02-15T00:20:38.941Z,3.13
2023-02-15T00:20:48.931Z,3.34
2023-02-15T00:20:58.928Z,3.33
2023-02-15T00:21:08.922Z,3.09
2023-02-15T00:21:18.941Z,3.34
2023-02-15T00:21:28.937Z,3.10
2023-02-15T00:21:38.938Z,3.10
2023-02-15T00:21:48.922Z,3.24
2023-02-15T00:21:58.930Z,3.10
2023-02-15T00:22:08.986Z,3.24
2023-02-15T00:22:18.919Z,3.09
2023-02-15T00:22:28.925Z,3.09
2023-02-15T00:22:38.918Z,3.05
2023-02-15T00:22:48.912Z,3.24
2023-02-15T00:22:58.957Z,2.94
2023-02-15T00:23:08.932Z,3.20
2023-02-15T00:23:18.915Z,3.28
2023-02-15T00:23:29.675Z,3.10
2023-02-15T00:23:38.910Z,3.05
2023-02-15T00:23:48.919Z,3.18
2023-02-15T00:23:58.978Z,3.13
2023-02-15T00:24:08.909Z,3.18
2023-02-15T00:24:18.919Z,3.23
2023-02-15T00:24:28.926Z,3.06
2023-02-15T00:24:38.929Z,3.09
2023-02-15T00:24:48.954Z,3.13
2023-02-15T00:24:58.921Z,3.05
2023-02-15T00:25:08.998Z,3.24
2023-02-15T00:25:18.908Z,3.10
2023-02-15T00:25:28.928Z,3.02
2023-02-15T00:25:38.911Z,3.18
2023-02-15T00:25:48.901Z,3.18
2023-02-15T00:25:59.165Z,3.10
2023-02-15T00:26:08.937Z,3.12
2023-02-15T00:26:19.042Z,3.09
2023-02-15T00:26:28.898Z,3.02
2023-02-15T00:26:38.896Z,3.06
2023-02-15T00:26:48.902Z,2.97
2023-02-15T00:26:58.918Z,3.20
2023-02-15T00:27:08.903Z,3.16
2023-02-15T00:27:18.895Z,3.13
2023-02-15T00:27:28.889Z,3.12
2023-02-15T00:27:39.003Z,3.09
2023-02-15T00:27:48.900Z,3.07
2023-02-15T00:27:59.669Z,3.07
2023-02-15T00:28:08.909Z,3.06
2023-02-15T00:28:18.943Z,3.09
2023-02-15T00:28:28.896Z,3.09
2023-02-15T00:28:38.897Z,3.02
2023-02-15T00:28:48.917Z,3.12
2023-02-15T00:28:58.899Z,3.10
2023-02-15T00:29:09.664Z,3.13
2023-02-15T00:29:18.881Z,2.98
2023-02-15T00:29:28.968Z,3.09
2023-02-15T00:29:38.895Z,3.13
2023-02-15T00:29:48.967Z,3.15
2023-02-15T00:29:58.928Z,3.02
2023-02-15T00:30:08.927Z,3.12
2023-02-15T00:30:18.999Z,3.05
2023-02-15T00:30:29.036Z,2.88
2023-02-15T00:30:38.881Z,3.13
2023-02-15T00:30:48.951Z,3.13
2023-02-15T00:30:58.989Z,3.16
2023-02-15T00:31:09.059Z,3.12
2023-02-15T00:31:19.002Z,3.05
2023-02-15T00:31:29.059Z,3.13
2023-02-15T00:31:38.984Z,3.16
2023-02-15T00:31:49.692Z,3.16
2023-02-15T00:31:59.749Z,3.02
2023-02-15T00:32:08.882Z,3.07
2023-02-15T00:32:18.880Z,3.12
2023-02-15T00:32:28.879Z,3.20
2023-02-15T00:32:38.878Z,3.05
2023-02-15T00:32:48.881Z,3.12
2023-02-15T00:32:58.884Z,3.16
2023-02-15T00:33:08.886Z,3.23
2023-02-15T00:33:18.876Z,3.10
2023-02-15T00:33:28.876Z,3.23
2023-02-15T00:33:38.870Z,3.16
2023-02-15T00:33:48.867Z,2.98
2023-02-15T00:33:58.868Z,3.18
2023-02-15T00:34:08.889Z,3.07
2023-02-15T00:34:18.933Z,2.89
2023-02-15T00:34:28.870Z,2.89
2023-02-15T00:34:38.970Z,3.09
2023-02-15T00:34:48.860Z,3.16
2023-02-15T00:34:58.878Z,3.10
2023-02-15T00:35:08.861Z,3.30
2023-02-15T00:35:19.676Z,3.13
2023-02-15T00:35:28.861Z,3.21
2023-02-15T00:35:38.860Z,3.09
2023-02-15T00:35:48.883Z,2.95
2023-02-15T00:36:00.093Z,3.33
2023-02-15T00:36:08.871Z,3.12
2023-02-15T00:36:18.875Z,3.07
2023-02-15T00:36:28.880Z,3.09
2023-02-15T00:36:38.961Z,2.92
2023-02-15T00:36:48.867Z,3.05
2023-02-15T00:36:58.895Z,3.12
2023-02-15T00:37:08.918Z,3.18
2023-02-15T00:37:19.675Z,3.07
2023-02-15T00:37:29.673Z,3.23
2023-02-15T00:37:38.846Z,3.05
2023-02-15T00:37:48.871Z,3.02
2023-02-15T00:37:58.863Z,2.92
2023-02-15T00:38:08.879Z,2.95
2023-02-15T00:38:18.874Z,3.02
2023-02-15T00:38:28.869Z,3.09
2023-02-15T00:38:38.863Z,2.92
2023-02-15T00:38:49.672Z,2.95
2023-02-15T00:38:58.926Z,2.94
2023-02-15T00:39:08.882Z,3.06
2023-02-15T00:39:18.865Z,2.97
2023-02-15T00:39:29.028Z,3.07
2023-02-15T00:39:38.955Z,3.05
2023-02-15T00:39:48.850Z,3.05
2023-02-15T00:39:58.848Z,2.92
2023-02-15T00:40:08.861Z,3.27
2023-02-15T00:40:18.837Z,3.24
2023-02-15T00:40:28.870Z,3.05
2023-02-15T00:40:38.857Z,3.06
2023-02-15T00:40:48.850Z,3.05
2023-02-15T00:40:58.842Z,2.92
2023-02-15T00:41:08.847Z,3.02
2023-02-15T00:41:18.854Z,3.00
2023-02-15T00:41:28.908Z,3.18
2023-02-15T00:41:39.034Z,2.94
2023-02-15T00:41:48.918Z,3.00
2023-02-15T00:41:59.667Z,2.88
2023-02-15T00:42:08.825Z,2.97
2023-02-15T00:42:18.840Z,3.00
2023-02-15T00:42:28.840Z,2.95
2023-02-15T00:42:38.872Z,2.95
2023-02-15T00:42:48.830Z,2.91
2023-02-15T00:42:59.678Z,2.88
2023-02-15T00:43:08.838Z,3.03
2023-02-15T00:43:18.841Z,2.88
2023-02-15T00:43:28.841Z,2.79
2023-02-15T00:43:38.836Z,2.91
2023-02-15T00:43:49.716Z,2.95
2023-02-15T00:43:58.845Z,2.89
2023-02-15T00:44:08.837Z,3.03
2023-02-15T00:44:18.856Z,2.95
2023-02-15T00:44:28.832Z,3.02
2023-02-15T00:44:38.875Z,3.05
2023-02-15T00:44:49.687Z,2.95
2023-02-15T00:44:59.673Z,2.94
2023-02-15T00:45:09.676Z,2.94
2023-02-15T00:45:18.822Z,2.84
2023-02-15T00:45:28.835Z,2.91
2023-02-15T00:45:38.888Z,3.03
2023-02-15T00:45:49.714Z,3.03
2023-02-15T00:45:59.070Z,3.03
2023-02-15T00:46:08.906Z,2.97
2023-02-15T00:46:18.910Z,3.02
2023-02-15T00:46:28.824Z,3.05
2023-02-15T00:46:38.830Z,2.97
2023-02-15T00:46:48.815Z,2.92
2023-02-15T00:46:58.830Z,3.03
2023-02-15T00:47:09.676Z,3.09
2023-02-15T00:47:18.816Z,3.05
2023-02-15T00:47:28.818Z,2.79
2023-02-15T00:47:38.813Z,2.73
2023-02-15T00:47:48.820Z,2.94
2023-02-15T00:47:58.824Z,2.94
2023-02-15T00:48:08.812Z,2.98
2023-02-15T00:48:18.807Z,2.82
2023-02-15T00:48:28.800Z,2.91
2023-02-15T00:48:39.038Z,3.02
2023-02-15T00:48:48.805Z,2.74
2023-02-15T00:48:59.657Z,2.97
2023-02-15T00:49:08.820Z,2.82
2023-02-15T00:49:18.798Z,2.87
2023-02-15T00:49:28.812Z,3.00
2023-02-15T00:49:38.815Z,2.95
2023-02-15T00:49:48.851Z,2.88
2023-02-15T00:49:59.661Z,2.98
2023-02-15T00:50:08.840Z,2.82
2023-02-15T00:50:18.796Z,3.07
2023-02-15T00:50:28.806Z,3.03
2023-02-15T00:50:38.903Z,2.81
2023-02-15T00:50:48.792Z,2.88
2023-02-15T00:50:58.796Z,2.82
2023-02-15T00:51:08.806Z,3.02
2023-02-15T00:51:18.811Z,2.98
2023-02-15T00:51:28.798Z,2.92
2023-02-15T00:51:38.811Z,2.95
2023-02-15T00:51:48.792Z,2.91
2023-02-15T00:51:58.821Z,2.94
2023-02-15T00:52:08.796Z,3.03
2023-02-15T00:52:18.792Z,2.82
2023-02-15T00:52:28.813Z,2.73
2023-02-15T00:52:38.786Z,2.77
2023-02-15T00:52:48.895Z,2.81
2023-02-15T00:52:58.802Z,2.87
2023-02-15T00:53:08.819Z,2.85
2023-02-15T00:53:18.824Z,2.59
2023-02-15T00:53:28.792Z,2.74
2023-02-15T00:53:38.783Z,2.82
2023-02-15T00:53:49.663Z,2.89
2023-02-15T00:53:58.794Z,2.82
2023-02-15T00:54:08.803Z,2.91
2023-02-15T00:54:18.783Z,2.81
2023-02-15T00:54:28.803Z,2.88
2023-02-15T00:54:38.780Z,2.84
2023-02-15T00:54:48.778Z,2.95
2023-02-15T00:54:58.836Z,2.81
2023-02-15T00:55:08.785Z,3.02
2023-02-15T00:55:18.787Z,2.70
2023-02-15T00:55:28.798Z,2.88
2023-02-15T00:55:39.660Z,2.94
2023-02-15T00:55:48.776Z,2.70
2023-02-15T00:55:58.966Z,2.70
2023-02-15T00:56:08.768Z,2.76
2023-02-15T00:56:18.812Z,2.79
2023-02-15T00:56:28.771Z,2.73
2023-02-15T00:56:38.890Z,2.89
2023-02-15T00:56:48.799Z,2.74
2023-02-15T00:56:59.677Z,2.87
2023-02-15T00:57:08.776Z,2.74
2023-02-15T00:57:18.883Z,2.76
2023-02-15T00:57:28.767Z,2.85
2023-02-15T00:57:38.774Z,2.79
2023-02-15T00:57:48.818Z,2.94
2023-02-15T00:57:58.758Z,2.84
2023-02-15T00:58:08.779Z,2.77
2023-02-15T00:58:18.820Z,2.84
2023-02-15T00:58:28.864Z,2.76
2023-02-15T00:58:38.765Z,2.79
2023-02-15T00:58:48.759Z,2.71
2023-02-15T00:58:58.788Z,2.77
2023-02-15T00:59:08.760Z,2.66
2023-02-15T00:59:18.776Z,2.71
2023-02-15T00:59:28.760Z,2.87
2023-02-15T00:59:38.884Z,2.79
2023-02-15T00:59:48.941Z,2.71
2023-02-15T00:59:58.767Z,2.82
2023-02-15T01:00:08.807Z,2.87
2023-02-15T01:00:18.757Z,2.77
2023-02-15T01:00:28.761Z,2.74
2023-02-15T01:00:38.759Z,2.59
2023-02-15T01:00:48.748Z,2.58
2023-02-15T01:00:58.784Z,2.73
2023-02-15T01:01:09.715Z,2.59
2023-02-15T01:01:18.802Z,2.76
2023-02-15T01:01:28.844Z,2.88
2023-02-15T01:01:38.844Z,2.81
2023-02-15T01:01:48.749Z,2.61
2023-02-15T01:01:58.771Z,2.70
2023-02-15T01:02:08.755Z,2.64
2023-02-15T01:02:18.770Z,2.81
2023-02-15T01:02:28.772Z,2.66
2023-02-15T01:02:38.881Z,2.64
2023-02-15T01:02:48.746Z,2.91
2023-02-15T01:02:58.767Z,2.70
2023-02-15T01:03:08.746Z,2.82
2023-02-15T01:03:18.738Z,2.82
2023-02-15T01:03:28.764Z,2.79
2023-02-15T01:03:38.751Z,2.71
2023-02-15T01:03:48.758Z,2.84
2023-02-15T01:03:59.739Z,2.71
2023-02-15T01:04:08.777Z,2.71
2023-02-15T01:04:18.819Z,2.81
2023-02-15T01:04:28.747Z,2.66
2023-02-15T01:04:38.812Z,2.70
2023-02-15T01:04:48.778Z,2.67
2023-02-15T01:04:58.737Z,2.85
2023-02-15T01:05:08.740Z,2.87
2023-02-15T01:05:19.239Z,2.66
2023-02-15T01:05:28.743Z,2.74
2023-02-15T01:05:38.737Z,2.69
2023-02-15T01:05:48.771Z,2.84
2023-02-15T01:05:59.073Z,2.64
2023-02-15T01:06:08.749Z,2.64
2023-02-15T01:06:18.858Z,2.91
2023-02-15T01:06:28.730Z,2.69
2023-02-15T01:06:39.678Z,2.98
2023-02-15T01:06:48.822Z,2.73
2023-02-15T01:06:58.737Z,2.63
2023-02-15T01:07:08.756Z,2.73
2023-02-15T01:07:18.728Z,2.89
2023-02-15T01:07:28.727Z,2.74
2023-02-15T01:07:38.732Z,2.73
2023-02-15T01:07:48.725Z,2.73
2023-02-15T01:07:58.726Z,2.76
2023-02-15T01:08:09.725Z,2.63
2023-02-15T01:08:18.724Z,2.76
2023-02-15T01:08:28.721Z,2.74
2023-02-15T01:08:38.723Z,2.76
2023-02-15T01:08:48.734Z,2.69
2023-02-15T01:08:58.734Z,2.63
2023-02-15T01:09:08.756Z,2.73
2023-02-15T01:09:18.727Z,2.92
2023-02-15T01:09:29.669Z,2.73
2023-02-15T01:09:38.720Z,2.79
2023-02-15T01:09:48.713Z,2.71
2023-02-15T01:09:58.719Z,2.89
2023-02-15T01:10:08.738Z,2.73
2023-02-15T01:10:18.713Z,2.73
2023-02-15T01:10:28.800Z,2.64
2023-02-15T01:10:38.733Z,2.94
2023-02-15T01:10:48.718Z,2.81
2023-02-15T01:10:59.668Z,2.74
2023-02-15T01:11:08.724Z,2.66
2023-02-15T01:11:18.726Z,2.81
2023-02-15T01:11:28.728Z,2.84
2023-02-15T01:11:38.708Z,2.77
2023-02-15T01:11:48.728Z,2.77
2023-02-15T01:11:58.709Z,2.70
2023-02-15T01:12:08.716Z,2.71
2023-02-15T01:12:18.740Z,2.84
2023-02-15T01:12:28.712Z,2.63
2023-02-15T01:12:39.684Z,2.63
2023-02-15T01:12:48.723Z,2.63
2023-02-15T01:12:58.702Z,2.46
2023-02-15T01:13:08.742Z,2.64
2023-02-15T01:13:18.744Z,2.79
2023-02-15T01:13:28.765Z,2.79
2023-02-15T01:13:38.709Z,2.76
2023-02-15T01:13:48.806Z,2.74
2023-02-15T01:13:58.715Z,2.71
2023-02-15T01:14:08.730Z,2.81
2023-02-15T01:14:18.705Z,2.74
2023-02-15T01:14:28.703Z,2.55
2023-02-15T01:14:38.814Z,2.67
2023-02-15T01:14:48.754Z,2.61
2023-02-15T01:14:58.775Z,2.51
2023-02-15T01:15:09.732Z,2.67
2023-02-15T01:15:18.711Z,2.58
2023-02-15T01:15:28.701Z,2.84
2023-02-15T01:15:38.773Z,2.66
2023-02-15T01:15:48.756Z,2.56
2023-02-15T01:15:58.740Z,2.66
2023-02-15T01:16:08.773Z,2.49
2023-02-15T01:16:18.698Z,2.71
2023-02-15T01:16:28.921Z,2.66
2023-02-15T01:16:38.696Z,2.66
2023-02-15T01:16:48.696Z,2.61
2023-02-15T01:16:58.706Z,2.71
2023-02-15T01:17:08.693Z,2.71
2023-02-15T01:17:18.695Z,2.53
2023-02-15T01:17:28.713Z,2.79
2023-02-15T01:17:38.713Z,2.55
2023-02-15T01:17:48.701Z,2.87
2023-02-15T01:17:59.840Z,2.73
2023-02-15T01:18:08.698Z,2.67
2023-02-15T01:18:18.684Z,2.70
2023-02-15T01:18:28.741Z,2.61
2023-02-15T01:18:38.696Z,2.63
2023-02-15T01:18:48.690Z,2.56
2023-02-15T01:18:58.680Z,2.77
2023-02-15T01:19:08.684Z,2.82
2023-02-15T01:19:19.676Z,2.81
2023-02-15T01:19:28.712Z,2.69
2023-02-15T01:19:38.670Z,2.67
2023-02-15T01:19:48.680Z,2.63
2023-02-15T01:19:58.682Z,2.74
2023-02-15T01:20:08.678Z,2.66
2023-02-15T01:20:18.670Z,2.55
2023-02-15T01:20:28.736Z,2.70
2023-02-15T01:20:39.212Z,2.77
2023-02-15T01:20:48.786Z,2.55
2023-02-15T01:20:58.754Z,2.87
2023-02-15T01:21:08.683Z,2.67
2023-02-15T01:21:18.672Z,2.59
2023-02-15T01:21:28.673Z,2.61
2023-02-15T01:21:38.662Z,2.61
2023-02-15T01:21:48.664Z,2.59
2023-02-15T01:21:58.733Z,2.73
2023-02-15T01:22:08.789Z,2.63
2023-02-15T01:22:19.180Z,2.70
2023-02-15T01:22:28.703Z,2.73
2023-02-15T01:22:38.661Z,2.79
2023-02-15T01:22:48.669Z,2.64
2023-02-15T01:22:58.659Z,2.55
2023-02-15T01:23:08.790Z,2.69
2023-02-15T01:23:18.670Z,2.82
2023-02-15T01:23:28.713Z,2.76
2023-02-15T01:23:38.672Z,2.48
2023-02-15T01:23:48.670Z,2.63
2023-02-15T01:23:58.657Z,2.76
2023-02-15T01:24:08.671Z,2.74
2023-02-15T01:24:18.678Z,2.70
2023-02-15T01:24:28.679Z,2.70
2023-02-15T01:24:38.659Z,2.70
2023-02-15T01:24:48.688Z,2.81
2023-02-15T01:24:59.192Z,2.67
2023-02-15T01:25:08.684Z,2.61
2023-02-15T01:25:18.706Z,2.70
2023-02-15T01:25:28.654Z,2.67
2023-02-15T01:25:38.660Z,2.61
2023-02-15T01:25:48.667Z,2.58
2023-02-15T01:25:58.735Z,2.85
2023-02-15T01:26:08.658Z,2.79
2023-02-15T01:26:18.712Z,2.56
2023-02-15T01:26:28.681Z,2.38
2023-02-15T01:26:38.662Z,2.53
2023-02-15T01:26:48.662Z,2.53
2023-02-15T01:26:58.665Z,2.37
2023-02-15T01:27:08.675Z,2.35
2023-02-15T01:27:18.653Z,2.59
2023-02-15T01:27:28.652Z,2.79
2023-02-15T01:27:39.185Z,2.59
2023-02-15T01:27:48.639Z,2.76
2023-02-15T01:27:58.638Z,2.61
2023-02-15T01:28:08.667Z,2.74
2023-02-15T01:28:18.712Z,2.52
2023-02-15T01:28:28.640Z,2.67
2023-02-15T01:28:38.664Z,2.48
2023-02-15T01:28:48.644Z,2.70
2023-02-15T01:28:58.714Z,2.55
2023-02-15T01:29:08.681Z,2.53
2023-02-15T01:29:18.649Z,2.79
2023-02-15T01:29:28.669Z,2.52
2023-02-15T01:29:38.634Z,2.56
2023-02-15T01:29:48.691Z,2.58
2023-02-15T01:29:58.668Z,2.66
2023-02-15T01:30:08.675Z,2.61
2023-02-15T01:30:18.689Z,2.61
2023-02-15T01:30:28.641Z,2.45
2023-02-15T01:30:38.643Z,2.52
2023-02-15T01:30:48.859Z,2.55
2023-02-15T01:30:58.700Z,2.69
2023-02-15T01:31:08.754Z,2.64
2023-02-15T01:31:18.733Z,2.49
2023-02-15T01:31:28.721Z,2.73
2023-02-15T01:31:38.731Z,2.52
2023-02-15T01:31:48.773Z,2.63
2023-02-15T01:31:59.309Z,2.58
2023-02-15T01:32:08.680Z,2.67
2023-02-15T01:32:18.638Z,2.61
2023-02-15T01:32:29.195Z,2.66
2023-02-15T01:32:38.646Z,2.56
2023-02-15T01:32:48.666Z,2.66
2023-02-15T01:32:58.640Z,2.46
2023-02-15T01:33:08.618Z,2.71
2023-02-15T01:33:19.155Z,2.51
2023-02-15T01:33:28.875Z,2.69
2023-02-15T01:33:38.633Z,2.69
2023-02-15T01:33:48.679Z,2.56
2023-02-15T01:33:58.620Z,2.81
2023-02-15T01:34:08.770Z,2.64
2023-02-15T01:34:18.664Z,2.56
2023-02-15T01:34:28.614Z,2.73
2023-02-15T01:34:38.664Z,2.48
2023-02-15T01:34:48.702Z,2.53
2023-02-15T01:34:58.611Z,2.63
2023-02-15T01:35:08.625Z,2.58
2023-02-15T01:35:18.619Z,2.58
2023-02-15T01:35:28.634Z,2.73
2023-02-15T01:35:38.625Z,2.55
2023-02-15T01:35:48.610Z,2.76
2023-02-15T01:35:59.048Z,2.61
2023-02-15T01:36:08.756Z,2.76
2023-02-15T01:36:19.685Z,2.76
2023-02-15T01:36:28.621Z,2.59
2023-02-15T01:36:38.625Z,2.48
2023-02-15T01:36:48.609Z,2.58
2023-02-15T01:36:58.617Z,2.41
2023-02-15T01:37:08.646Z,2.70
2023-02-15T01:37:18.607Z,2.52
2023-02-15T01:37:28.638Z,2.59
2023-02-15T01:37:38.604Z,2.74
2023-02-15T01:37:48.599Z,2.41
2023-02-15T01:37:58.597Z,2.64
2023-02-15T01:38:08.603Z,2.70
2023-02-15T01:38:18.672Z,2.45
2023-02-15T01:38:28.599Z,2.61
2023-02-15T01:38:38.597Z,2.49
2023-02-15T01:38:48.605Z,2.46
2023-02-15T01:38:59.180Z,2.63
2023-02-15T01:39:08.610Z,2.67
2023-02-15T01:39:18.588Z,2.61
2023-02-15T01:39:28.653Z,2.44
2023-02-15T01:39:38.694Z,2.46
2023-02-15T01:39:49.270Z,2.55
2023-02-15T01:39:58.602Z,2.55
2023-02-15T01:40:08.629Z,2.64
2023-02-15T01:40:18.605Z,2.55
2023-02-15T01:40:28.608Z,2.48
2023-02-15T01:40:38.600Z,2.63
2023-02-15T01:40:48.692Z,2.53
2023-02-15T01:40:59.196Z,2.58
2023-02-15T01:41:08.661Z,2.53
2023-02-15T01:41:19.214Z,2.49
2023-02-15T01:41:28.650Z,2.46
2023-02-15T01:41:38.603Z,2.40
2023-02-15T01:41:48.699Z,2.49
2023-02-15T01:41:58.580Z,2.61
2023-02-15T01:42:08.583Z,2.44
2023-02-15T01:42:18.592Z,2.59
2023-02-15T01:42:28.601Z,2.53
2023-02-15T01:42:38.590Z,2.51
2023-02-15T01:42:48.598Z,2.53
2023-02-15T01:42:58.585Z,2.64
2023-02-15T01:43:08.657Z,2.48
2023-02-15T01:43:18.600Z,2.30
2023-02-15T01:43:28.585Z,2.52
2023-02-15T01:43:38.580Z,2.44
2023-02-15T01:43:48.617Z,2.51
2023-02-15T01:43:58.591Z,2.51
2023-02-15T01:44:08.577Z,2.48
2023-02-15T01:44:19.184Z,2.51
2023-02-15T01:44:28.584Z,2.52
2023-02-15T01:44:38.583Z,2.67
2023-02-15T01:44:48.570Z,2.55
2023-02-15T01:44:58.588Z,2.38
2023-02-15T01:45:08.587Z,2.40
2023-02-15T01:45:18.572Z,2.63
2023-02-15T01:45:28.569Z,2.71
2023-02-15T01:45:38.582Z,2.45
2023-02-15T01:45:48.617Z,2.41
2023-02-15T01:45:58.840Z,2.37
2023-02-15T01:46:08.643Z,2.41
2023-02-15T01:46:18.658Z,2.63
2023-02-15T01:46:28.628Z,2.55
2023-02-15T01:46:38.692Z,2.46
2023-02-15T01:46:48.576Z,2.49
2023-02-15T01:46:58.570Z,2.41
2023-02-15T01:47:08.591Z,2.53
2023-02-15T01:47:19.178Z,2.58
2023-02-15T01:47:28.572Z,2.52
2023-02-15T01:47:38.573Z,2.51
2023-02-15T01:47:48.565Z,2.52
2023-02-15T01:47:58.580Z,2.56
2023-02-15T01:48:11.261Z,2.52
2023-02-15T01:48:18.580Z,2.67
2023-02-15T01:48:28.558Z,2.59
2023-02-15T01:48:38.572Z,2.51
2023-02-15T01:48:48.553Z,2.52
2023-02-15T01:48:58.569Z,2.46
2023-02-15T01:49:08.569Z,2.49
2023-02-15T01:49:18.666Z,2.51
2023-02-15T01:49:28.622Z,2.37
2023-02-15T01:49:38.551Z,2.40
2023-02-15T01:49:48.578Z,2.34
2023-02-15T01:49:58.599Z,2.40
2023-02-15T01:50:09.179Z,2.34
2023-02-15T01:50:18.554Z,2.31
2023-02-15T01:50:28.548Z,2.44
2023-02-15T01:50:38.566Z,2.51
2023-02-15T01:50:48.547Z,2.35
2023-02-15T01:50:58.568Z,2.38
2023-02-15T01:51:08.621Z,2.46
2023-02-15T01:51:18.552Z,2.59
2023-02-15T01:51:28.581Z,2.45
2023-02-15T01:51:38.539Z,2.30
2023-02-15T01:51:48.610Z,2.51
2023-02-15T01:51:58.555Z,2.34
2023-02-15T01:52:08.635Z,2.38
2023-02-15T01:52:18.572Z,2.35
2023-02-15T01:52:28.540Z,2.28
2023-02-15T01:52:38.540Z,2.61
2023-02-15T01:52:48.550Z,2.49
2023-02-15T01:52:58.655Z,2.41
2023-02-15T01:53:08.559Z,2.61
2023-02-15T01:53:18.564Z,2.45
2023-02-15T01:53:28.550Z,2.37
2023-02-15T01:53:38.544Z,2.44
2023-02-15T01:53:48.556Z,2.45
2023-02-15T01:53:58.589Z,2.30
2023-02-15T01:54:08.536Z,2.37
2023-02-15T01:54:18.592Z,2.51
2023-02-15T01:54:28.684Z,2.31
2023-02-15T01:54:38.542Z,2.48
2023-02-15T01:54:48.594Z,2.45
2023-02-15T01:54:58.528Z,2.38
2023-02-15T01:55:09.299Z,2.41
2023-02-15T01:55:18.642Z,2.44
2023-02-15T01:55:28.562Z,2.40
2023-02-15T01:55:38.557Z,2.40
2023-02-15T01:55:48.655Z,2.41
2023-02-15T01:55:58.544Z,2.33
2023-02-15T01:56:08.572Z,2.46
2023-02-15T01:56:18.646Z,2.38
2023-02-15T01:56:28.539Z,2.46
2023-02-15T01:56:38.560Z,2.61
2023-02-15T01:56:48.539Z,2.34
2023-02-15T01:56:58.575Z,2.48
2023-02-15T01:57:08.674Z,2.51
2023-02-15T01:57:18.545Z,2.37
2023-02-15T01:57:29.180Z,2.48
2023-02-15T01:57:38.567Z,2.40
2023-02-15T01:57:49.214Z,2.44
2023-02-15T01:57:58.533Z,2.44
2023-02-15T01:58:08.513Z,2.52
2023-02-15T01:58:18.524Z,2.31
2023-02-15T01:58:29.177Z,2.41
2023-02-15T01:58:38.522Z,2.31
2023-02-15T01:58:48.515Z,2.38
2023-02-15T01:58:58.545Z,2.63
2023-02-15T01:59:08.585Z,2.33
2023-02-15T01:59:18.511Z,2.33
2023-02-15T01:59:28.502Z,2.28
2023-02-15T01:59:38.531Z,2.31
2023-02-15T01:59:48.511Z,2.38
2023-02-15T01:59:58.507Z,2.46
2023-02-15T02:00:09.201Z,2.27
2023-02-15T02:00:18.530Z,2.31
2023-02-15T02:00:29.203Z,2.49
2023-02-15T02:00:38.526Z,2.28
2023-02-15T02:00:48.528Z,2.44
2023-02-15T02:01:00.267Z,2.45
2023-02-15T02:01:08.593Z,2.34
2023-02-15T02:01:18.573Z,2.56
2023-02-15T02:01:28.588Z,2.27
2023-02-15T02:01:38.569Z,2.26
2023-02-15T02:01:48.613Z,2.52
2023-02-15T02:01:58.504Z,2.30
2023-02-15T02:02:08.573Z,2.44
2023-02-15T02:02:18.632Z,2.46
2023-02-15T02:02:29.236Z,2.23
2023-02-15T02:02:38.536Z,2.16
2023-02-15T02:02:48.583Z,2.22
2023-02-15T02:02:58.556Z,2.38
2023-02-15T02:03:08.647Z,2.23
2023-02-15T02:03:18.493Z,2.13
2023-02-15T02:03:28.496Z,2.30
2023-02-15T02:03:38.500Z,2.31
2023-02-15T02:03:48.500Z,2.17
2023-02-15T02:03:58.486Z,2.30
2023-02-15T02:04:08.578Z,2.38
2023-02-15T02:04:18.484Z,2.26
2023-02-15T02:04:28.481Z,2.27
2023-02-15T02:04:38.495Z,2.22
2023-02-15T02:04:48.482Z,2.30
2023-02-15T02:04:58.595Z,2.34
2023-02-15T02:05:08.527Z,2.45
2023-02-15T02:05:18.483Z,2.41
2023-02-15T02:05:28.581Z,2.38
2023-02-15T02:05:38.491Z,2.26
2023-02-15T02:05:48.477Z,2.33
2023-02-15T02:05:58.832Z,2.28
2023-02-15T02:06:08.525Z,2.17
2023-02-15T02:06:18.471Z,2.40
2023-02-15T02:06:28.493Z,2.27
2023-02-15T02:06:38.472Z,2.28
2023-02-15T02:06:48.471Z,2.37
2023-02-15T02:06:58.492Z,2.41
2023-02-15T02:07:08.473Z,2.30
2023-02-15T02:07:18.547Z,2.38
2023-02-15T02:07:28.550Z,2.31
2023-02-15T02:07:38.469Z,2.41
2023-02-15T02:07:48.471Z,2.38
2023-02-15T02:07:58.486Z,2.40
2023-02-15T02:08:08.469Z,2.44
2023-02-15T02:08:18.489Z,2.28
2023-02-15T02:08:28.485Z,2.20
2023-02-15T02:08:38.476Z,2.52
2023-02-15T02:08:49.196Z,2.48
2023-02-15T02:08:58.466Z,2.35
2023-02-15T02:09:08.492Z,2.27
2023-02-15T02:09:18.478Z,2.35
2023-02-15T02:09:28.475Z,2.40
2023-02-15T02:09:38.465Z,2.48
2023-02-15T02:09:48.473Z,2.34
2023-02-15T02:09:58.459Z,2.41
2023-02-15T02:10:08.462Z,2.38
2023-02-15T02:10:18.467Z,2.37
2023-02-15T02:10:28.458Z,2.30
2023-02-15T02:10:38.453Z,2.31
2023-02-15T02:10:48.471Z,2.38
2023-02-15T02:10:58.509Z,2.27
2023-02-15T02:11:08.451Z,2.28
2023-02-15T02:11:18.461Z,2.40
2023-02-15T02:11:28.462Z,2.34
2023-02-15T02:11:38.462Z,2.51
2023-02-15T02:11:48.495Z,2.35
2023-02-15T02:11:58.464Z,2.26
2023-02-15T02:12:08.462Z,2.38
2023-02-15T02:12:18.453Z,2.51
2023-02-15T02:12:29.237Z,2.49
2023-02-15T02:12:38.448Z,2.51
2023-02-15T02:12:48.457Z,2.46
2023-02-15T02:12:58.442Z,2.51
2023-02-15T02:13:08.463Z,2.40